Time;durP1;ratioP1;P1;durP2;ratioP2;P2;SDS_P1;SDS_P2;PMS_P1;PMS_P2;Temp;Humidity;BMP_temperature;BMP_pressure;BME280_temperature;BME280_humidity;BME280_pressure;Samples;Min_cycle;Max_cycle;Signal;HPM_P1;HPM_P2
2022/03/02 00:01:23;;;;;;;12.70;9.63;;;0.00;99.90;;;;;;6133186;23;20491;-84
2022/03/02 00:03:49;;;;;;;12.43;9.27;;;0.00;99.90;;;;;;6132496;23;20345;-84
2022/03/02 00:06:15;;;;;;;13.50;10.47;;;0.00;99.90;;;;;;6130552;23;20392;-84
2022/03/02 00:08:41;;;;;;;17.80;11.40;;;-0.10;99.90;;;;;;6131022;23;20411;-84
2022/03/02 00:11:07;;;;;;;15.03;10.93;;;0.00;99.90;;;;;;6129619;23;20164;-84
2022/03/02 00:13:32;;;;;;;14.30;10.87;;;0.00;99.90;;;;;;6129496;23;20971;-84
2022/03/02 00:16:00;;;;;;;14.63;10.23;;;0.00;99.90;;;;;;6129916;23;20258;-84
2022/03/02 00:18:26;;;;;;;17.20;10.57;;;0.00;99.90;;;;;;6130295;23;20183;-84
2022/03/02 00:20:52;;;;;;;12.60;10.07;;;0.00;99.90;;;;;;6132071;23;20481;-84
2022/03/02 00:23:18;;;;;;;15.83;10.83;;;0.00;99.90;;;;;;6131203;23;20441;-84
2022/03/02 00:25:43;;;;;;;16.07;10.70;;;-0.10;99.90;;;;;;6130113;23;20391;-84
2022/03/02 00:28:09;;;;;;;15.60;11.30;;;-0.10;99.90;;;;;;6132872;23;20664;-84
2022/03/02 00:30:37;;;;;;;16.53;11.60;;;-0.10;99.90;;;;;;6131518;23;20152;-84
2022/03/02 00:33:03;;;;;;;14.70;11.03;;;-0.50;99.90;;;;;;6134122;23;20492;-84
2022/03/02 00:35:37;;;;;;;19.33;12.13;;;-0.50;99.90;;;;;;6132222;23;20534;-84
2022/03/02 00:38:04;;;;;;;18.50;11.70;;;-0.50;99.90;;;;;;6133309;23;20399;-84
2022/03/02 00:40:30;;;;;;;15.77;11.60;;;-0.20;99.90;;;;;;6133500;23;20400;-83
2022/03/02 00:42:56;;;;;;;14.33;11.00;;;-0.30;99.90;;;;;;6132351;23;20418;-84
2022/03/02 00:45:22;;;;;;;17.27;12.83;;;-0.20;99.90;;;;;;6131968;23;20794;-83
2022/03/02 00:47:48;;;;;;;15.20;11.10;;;-0.20;99.90;;;;;;6135823;23;20195;-84
2022/03/02 00:50:14;;;;;;;13.23;10.30;;;-0.20;99.90;;;;;;6134001;23;20160;-84
2022/03/02 00:52:40;;;;;;;15.17;10.87;;;0.00;99.90;;;;;;6132171;23;20187;-85
2022/03/02 00:55:06;;;;;;;13.37;10.70;;;0.10;99.90;;;;;;6131169;23;20878;-85
2022/03/02 00:57:32;;;;;;;18.07;11.77;;;0.20;99.90;;;;;;6133334;23;20992;-84
2022/03/02 00:59:58;;;;;;;13.53;10.90;;;0.10;99.90;;;;;;6131299;23;20441;-84
2022/03/02 01:02:24;;;;;;;15.83;11.47;;;0.10;99.90;;;;;;6136021;23;20403;-85
2022/03/02 01:04:50;;;;;;;17.03;12.10;;;0.20;99.90;;;;;;6133482;23;20458;-84
2022/03/02 01:07:16;;;;;;;13.90;10.90;;;0.30;99.90;;;;;;6132948;23;20790;-84
2022/03/02 01:09:41;;;;;;;14.83;11.00;;;0.30;99.90;;;;;;6132961;23;20555;-84
2022/03/02 01:12:07;;;;;;;14.50;11.23;;;0.20;99.90;;;;;;6133862;23;20439;-84
2022/03/02 01:14:32;;;;;;;13.33;10.07;;;0.30;99.90;;;;;;6133092;23;20211;-85
2022/03/02 01:16:58;;;;;;;15.30;11.50;;;0.30;99.90;;;;;;6133532;23;20195;-85
2022/03/02 01:19:24;;;;;;;16.77;12.30;;;0.30;99.90;;;;;;6132626;23;20191;-86
2022/03/02 01:21:49;;;;;;;15.70;11.97;;;0.20;99.90;;;;;;6131416;23;20172;-85
2022/03/02 01:24:15;;;;;;;20.50;10.90;;;0.20;99.90;;;;;;6133044;23;20180;-85
2022/03/02 01:26:41;;;;;;;16.13;11.60;;;0.10;99.90;;;;;;6132164;23;20196;-85
2022/03/02 01:29:06;;;;;;;17.40;10.87;;;0.00;99.90;;;;;;6133039;23;20720;-86
2022/03/02 01:31:32;;;;;;;20.37;12.30;;;-0.20;99.90;;;;;;6131626;23;20740;-84
2022/03/02 01:33:58;;;;;;;15.10;10.57;;;-0.30;99.90;;;;;;6132190;23;20152;-84
2022/03/02 01:36:24;;;;;;;14.67;11.63;;;-0.20;99.90;;;;;;6132193;23;20566;-84
2022/03/02 01:38:50;;;;;;;16.23;11.03;;;-0.20;99.90;;;;;;6132118;23;20449;-84
2022/03/02 01:41:17;;;;;;;15.40;11.07;;;-0.10;99.90;;;;;;6132845;23;20714;-84
2022/03/02 01:43:44;;;;;;;17.33;12.20;;;-0.10;99.90;;;;;;6157938;23;20830;-85
2022/03/02 01:46:10;;;;;;;15.30;11.67;;;0.00;99.90;;;;;;6132621;23;20466;-85
2022/03/02 01:48:42;;;;;;;15.67;10.73;;;0.00;99.90;;;;;;6134437;23;20862;-85
2022/03/02 01:51:08;;;;;;;14.93;10.90;;;0.10;99.90;;;;;;6159718;23;20173;-85
2022/03/02 01:53:34;;;;;;;18.20;11.80;;;0.10;99.90;;;;;;6130733;23;20979;-85
2022/03/02 01:56:00;;;;;;;15.50;11.40;;;0.10;99.90;;;;;;6136531;23;20637;-85
2022/03/02 01:58:28;;;;;;;15.37;11.20;;;0.10;99.90;;;;;;6134225;23;20482;-85
2022/03/02 02:00:53;;;;;;;14.70;10.90;;;0.10;99.90;;;;;;6129950;23;20442;-84
2022/03/02 02:03:20;;;;;;;13.00;10.47;;;0.10;99.90;;;;;;6128648;23;20383;-84
2022/03/02 02:05:46;;;;;;;13.30;9.43;;;0.00;99.90;;;;;;6131278;23;20737;-84
2022/03/02 02:08:12;;;;;;;17.40;10.70;;;-0.20;99.90;;;;;;6132979;23;20388;-84
2022/03/02 02:10:37;;;;;;;14.40;10.20;;;-0.30;99.90;;;;;;6133435;23;20400;-84
2022/03/02 02:13:03;;;;;;;16.80;12.07;;;-0.30;99.90;;;;;;6130460;23;20160;-85
2022/03/02 02:15:29;;;;;;;18.17;12.03;;;-0.30;99.90;;;;;;6131433;23;20546;-85
2022/03/02 02:17:56;;;;;;;18.87;12.17;;;-0.40;99.90;;;;;;6133621;23;20396;-85
2022/03/02 02:20:23;;;;;;;16.73;11.97;;;-0.40;99.90;;;;;;6132671;23;20840;-85
2022/03/02 02:22:49;;;;;;;16.40;11.40;;;-0.50;99.90;;;;;;6130715;23;20751;-85
2022/03/02 02:25:16;;;;;;;19.17;12.60;;;-0.50;99.90;;;;;;6130337;23;20813;-85
2022/03/02 02:27:44;;;;;;;20.13;13.20;;;-0.60;99.90;;;;;;6132875;23;21117;-84
2022/03/02 02:30:17;;;;;;;15.70;11.40;;;-0.60;99.90;;;;;;6131758;23;20411;-85
2022/03/02 02:32:57;;;;;;;16.40;11.60;;;-0.60;99.90;;;;;;6128537;23;20515;-84
2022/03/02 02:35:25;;;;;;;16.60;11.40;;;-0.60;99.90;;;;;;6133597;23;20864;-84
2022/03/02 02:37:51;;;;;;;14.50;10.67;;;-0.60;99.90;;;;;;6131676;23;20603;-84
2022/03/02 02:40:19;;;;;;;14.67;10.10;;;-0.60;99.90;;;;;;6131600;23;20399;-83
2022/03/02 02:42:46;;;;;;;14.87;10.77;;;-0.60;99.90;;;;;;6132681;23;20416;-84
2022/03/02 02:45:20;;;;;;;14.67;10.10;;;-0.60;99.90;;;;;;6131815;23;20392;-84
2022/03/02 02:47:50;;;;;;;12.17;9.37;;;-0.70;99.90;;;;;;6132134;23;20400;-84
2022/03/02 02:50:30;;;;;;;12.27;9.77;;;-0.70;99.90;;;;;;6132203;23;20436;-84
2022/03/02 02:52:58;;;;;;;15.23;10.27;;;-0.80;99.90;;;;;;6131962;23;20503;-84
2022/03/02 02:55:25;;;;;;;20.80;10.07;;;-0.90;99.90;;;;;;6130961;23;20442;-85
2022/03/02 02:57:52;;;;;;;14.33;10.40;;;-1.00;99.90;;;;;;6133554;23;20894;-84
2022/03/02 03:00:19;;;;;;;18.40;10.93;;;-1.10;99.90;;;;;;6130870;23;20812;-85
2022/03/02 03:02:48;;;;;;;12.40;8.97;;;-1.10;99.90;;;;;;6130182;23;20397;-84
2022/03/02 03:05:18;;;;;;;14.63;10.43;;;-1.10;99.90;;;;;;6129534;23;20388;-84
2022/03/02 03:07:45;;;;;;;14.57;11.03;;;-1.00;99.90;;;;;;6132596;23;20748;-84
2022/03/02 03:10:11;;;;;;;16.10;10.30;;;-1.00;99.90;;;;;;6131164;23;20427;-84
2022/03/02 03:12:37;;;;;;;16.20;10.63;;;-1.00;99.90;;;;;;6131556;23;20401;-84
2022/03/02 03:15:06;;;;;;;16.53;10.23;;;-1.10;99.90;;;;;;6130397;23;20396;-84
2022/03/02 03:17:31;;;;;;;17.43;11.07;;;-1.20;99.90;;;;;;6131686;23;20397;-84
2022/03/02 03:19:57;;;;;;;17.20;11.00;;;-1.30;99.90;;;;;;6132139;23;20388;-84
2022/03/02 03:22:23;;;;;;;15.57;10.17;;;-1.30;99.90;;;;;;6130675;23;20176;-84
2022/03/02 03:24:48;;;;;;;14.43;10.50;;;-1.20;99.90;;;;;;6129858;23;20152;-84
2022/03/02 03:27:14;;;;;;;18.13;11.63;;;-1.30;99.90;;;;;;6129833;23;20663;-84
2022/03/02 03:29:40;;;;;;;13.73;10.80;;;-1.20;99.90;;;;;;6130467;23;20199;-84
2022/03/02 03:32:07;;;;;;;15.93;11.03;;;-1.20;99.90;;;;;;6130449;23;20721;-84
2022/03/02 03:34:32;;;;;;;17.00;11.30;;;-1.20;99.90;;;;;;6128224;23;20438;-84
2022/03/02 03:36:58;;;;;;;16.67;11.30;;;-1.20;99.90;;;;;;6130129;23;20439;-84
2022/03/02 03:39:24;;;;;;;16.10;10.20;;;-1.20;99.90;;;;;;6134923;23;20161;-84
2022/03/02 03:41:52;;;;;;;12.80;10.00;;;-1.30;99.90;;;;;;6130732;23;20160;-85
2022/03/02 03:44:18;;;;;;;18.00;11.37;;;-1.30;99.90;;;;;;6130040;23;20536;-84
2022/03/02 03:46:43;;;;;;;14.90;10.63;;;-1.50;99.90;;;;;;6131185;23;20477;-84
2022/03/02 03:49:09;;;;;;;15.47;11.37;;;-1.50;99.90;;;;;;6128479;23;20392;-85
2022/03/02 03:51:35;;;;;;;16.63;11.03;;;-1.40;99.90;;;;;;6130465;23;20161;-84
2022/03/02 03:54:01;;;;;;;16.73;10.60;;;-1.30;99.90;;;;;;6131508;23;20168;-85
2022/03/02 03:56:30;;;;;;;15.97;10.73;;;-1.30;99.90;;;;;;6133247;23;20443;-84
2022/03/02 03:58:58;;;;;;;18.53;11.20;;;-1.20;99.90;;;;;;6130121;23;20205;-84
2022/03/02 04:01:24;;;;;;;17.93;11.23;;;-1.20;99.90;;;;;;6126469;23;20498;-84
2022/03/02 04:03:49;;;;;;;15.70;10.20;;;-1.20;99.90;;;;;;6130474;23;20420;-85
2022/03/02 04:06:16;;;;;;;17.90;11.20;;;-1.20;99.90;;;;;;6129348;23;20353;-85
2022/03/02 04:08:42;;;;;;;13.50;9.33;;;-1.20;99.90;;;;;;6131777;23;20163;-85
2022/03/02 04:11:07;;;;;;;19.70;10.83;;;-1.20;99.90;;;;;;6131360;23;20385;-85
2022/03/02 04:13:33;;;;;;;15.17;11.10;;;-1.20;99.90;;;;;;6132784;23;20164;-84
2022/03/02 04:15:58;;;;;;;16.43;10.60;;;-1.20;99.90;;;;;;6136738;23;20211;-85
2022/03/02 04:18:24;;;;;;;17.60;10.90;;;-1.20;99.90;;;;;;6137983;23;20315;-85
2022/03/02 04:20:51;;;;;;;15.80;10.47;;;-1.30;99.90;;;;;;6135826;23;20156;-85
2022/03/02 04:23:21;;;;;;;17.90;10.90;;;-1.30;99.90;;;;;;6164100;23;20944;-84
2022/03/02 04:25:48;;;;;;;16.05;10.20;;;-1.30;99.90;;;;;;6137391;23;20594;-84
2022/03/02 04:28:13;;;;;;;14.85;9.98;;;-1.50;99.90;;;;;;6135210;23;20652;-84
2022/03/02 04:30:39;;;;;;;16.70;9.60;;;-1.50;99.90;;;;;;6130865;23;20589;-85
2022/03/02 04:33:05;;;;;;;13.23;9.63;;;-1.50;99.90;;;;;;6130147;23;20160;-84
2022/03/02 04:35:31;;;;;;;13.53;10.00;;;-1.70;99.90;;;;;;6131919;23;21286;-84
2022/03/02 04:37:57;;;;;;;14.70;9.20;;;-1.80;99.90;;;;;;6130748;23;20404;-84
2022/03/02 04:40:23;;;;;;;12.82;8.82;;;-1.80;99.90;;;;;;6136491;23;20454;-84
2022/03/02 04:42:48;;;;;;;13.60;9.33;;;-1.80;99.90;;;;;;6136709;23;20639;-84
2022/03/02 04:45:15;;;;;;;14.63;10.50;;;-2.00;99.90;;;;;;6131567;23;20163;-84
2022/03/02 04:47:41;;;;;;;13.70;9.13;;;-2.10;99.90;;;;;;6132267;23;20165;-85
2022/03/02 04:50:08;;;;;;;13.90;9.77;;;-2.10;99.90;;;;;;6137317;23;20243;-85
2022/03/02 04:52:34;;;;;;;14.90;9.85;;;-2.10;99.90;;;;;;6131155;23;20811;-86
2022/03/02 04:55:05;;;;;;;15.23;9.67;;;-2.20;99.90;;;;;;6133097;23;20156;-86
2022/03/02 04:57:45;;;;;;;16.67;9.63;;;-2.20;99.90;;;;;;6133033;23;20287;-85
2022/03/02 05:00:23;;;;;;;14.25;9.75;;;-2.20;99.90;;;;;;6132490;23;20183;-85
2022/03/02 05:02:50;;;;;;;15.35;10.05;;;-2.20;99.90;;;;;;6130786;23;20144;-84
2022/03/02 05:05:17;;;;;;;13.10;8.85;;;-2.20;99.90;;;;;;6129633;23;20184;-84
2022/03/02 05:07:44;;;;;;;15.68;10.55;;;-2.20;99.90;;;;;;6132444;23;20437;-85
2022/03/02 05:10:11;;;;;;;15.25;8.98;;;-2.10;99.90;;;;;;6131484;23;20163;-84
2022/03/02 05:12:37;;;;;;;14.32;10.07;;;-2.10;99.90;;;;;;6132310;23;20737;-84
2022/03/02 05:15:04;;;;;;;13.95;9.00;;;-2.10;99.90;;;;;;6130359;23;20591;-85
2022/03/02 05:17:30;;;;;;;16.55;11.02;;;-2.10;99.90;;;;;;6131165;23;20172;-85
2022/03/02 05:19:56;;;;;;;15.60;10.70;;;-2.10;99.90;;;;;;6132106;23;20608;-84
2022/03/02 05:22:22;;;;;;;15.77;11.03;;;-2.00;99.90;;;;;;6131969;23;20407;-87
2022/03/02 05:24:47;;;;;;;18.00;10.60;;;-1.90;99.90;;;;;;6131811;23;20549;-85
2022/03/02 05:27:13;;;;;;;13.77;10.40;;;-1.80;99.90;;;;;;6132246;23;20215;-85
2022/03/02 05:29:38;;;;;;;16.50;10.50;;;-1.80;99.90;;;;;;6129174;23;20773;-85
2022/03/02 05:32:05;;;;;;;18.37;10.77;;;-1.70;99.90;;;;;;6127171;23;20248;-85
2022/03/02 05:34:30;;;;;;;16.25;10.82;;;-1.60;99.90;;;;;;6128774;23;20559;-85
2022/03/02 05:36:57;;;;;;;17.50;11.00;;;-1.60;99.90;;;;;;6127059;23;20275;-85
2022/03/02 05:39:23;;;;;;;12.55;10.85;;;-1.50;99.90;;;;;;6127421;23;20583;-85
2022/03/02 05:41:52;;;;;;;16.30;10.50;;;-1.50;99.90;;;;;;6127264;23;20160;-85
2022/03/02 05:44:18;;;;;;;16.42;11.25;;;-1.50;99.90;;;;;;6121845;23;20854;-85
2022/03/02 05:46:44;;;;;;;16.02;10.63;;;-1.50;99.90;;;;;;6127810;23;20327;-85
2022/03/02 05:49:13;;;;;;;17.20;11.37;;;-1.50;99.90;;;;;;6128894;23;20361;-85
2022/03/02 05:51:39;;;;;;;16.90;11.57;;;-1.40;99.90;;;;;;6125279;23;20396;-84
2022/03/02 05:54:08;;;;;;;18.35;12.00;;;-1.40;99.90;;;;;;6125320;23;20152;-84
2022/03/02 05:56:37;;;;;;;23.52;13.82;;;-1.40;99.90;;;;;;6130712;23;20211;-86
2022/03/02 05:59:14;;;;;;;25.58;14.25;;;-1.40;99.90;;;;;;6130240;23;20168;-88
2022/03/02 06:01:46;;;;;;;25.50;13.82;;;-1.30;99.90;;;;;;6127265;23;20156;-87
2022/03/02 06:04:16;;;;;;;25.92;16.50;;;-1.40;99.90;;;;;;6121009;23;20447;-86
2022/03/02 06:06:52;;;;;;;30.45;17.02;;;-1.40;99.90;;;;;;6122378;23;20158;-86
2022/03/02 06:09:52;;;;;;;28.10;16.70;;;-1.40;99.90;;;;;;6130045;23;20156;-86
2022/03/02 06:12:18;;;;;;;22.50;13.25;;;-1.30;99.90;;;;;;6135464;23;20697;-85
2022/03/02 06:14:44;;;;;;;24.63;15.05;;;-1.20;99.90;;;;;;6131523;23;20175;-88
2022/03/02 06:17:10;;;;;;;25.50;15.33;;;-1.20;99.90;;;;;;6128763;23;20239;-87
2022/03/02 06:19:36;;;;;;;28.42;19.20;;;-1.20;99.90;;;;;;6128434;23;20207;-86
2022/03/02 06:22:03;;;;;;;37.53;21.88;;;-1.20;99.90;;;;;;6130086;23;20392;-85
2022/03/02 06:24:30;;;;;;;25.58;16.15;;;-1.10;99.90;;;;;;6126803;23;20516;-86
2022/03/02 06:26:56;;;;;;;20.55;12.75;;;-1.00;99.90;;;;;;6127303;23;20195;-83
2022/03/02 06:29:21;;;;;;;18.40;12.37;;;-1.00;99.90;;;;;;6129218;23;20234;-83
2022/03/02 06:31:47;;;;;;;24.47;12.73;;;-0.90;99.90;;;;;;6130778;23;20211;-83
2022/03/02 06:34:13;;;;;;;22.63;12.93;;;-0.70;99.90;;;;;;6128942;23;20179;-84
2022/03/02 06:36:38;;;;;;;22.77;14.73;;;-0.50;99.90;;;;;;6131983;23;20199;-84
2022/03/02 06:39:05;;;;;;;31.90;17.83;;;-0.40;99.90;;;;;;6130449;23;20271;-83
2022/03/02 06:41:36;;;;;;;21.83;14.03;;;-0.40;99.90;;;;;;6133857;23;20240;-86
2022/03/02 06:44:26;;;;;;;20.80;12.63;;;-0.30;99.90;;;;;;6130855;23;20459;-85
2022/03/02 06:47:04;;;;;;;23.87;13.17;;;-0.20;99.90;;;;;;6129843;23;20473;-87
2022/03/02 06:50:09;;;;;;;23.03;11.37;;;-0.10;99.90;;;;;;6129484;23;20388;-86
2022/03/02 06:52:37;;;;;;;18.63;10.87;;;0.00;99.90;;;;;;6129608;23;20395;-85
2022/03/02 06:55:20;;;;;;;15.90;11.20;;;0.00;99.90;;;;;;6129384;23;20542;-86
2022/03/02 06:57:51;;;;;;;19.43;12.87;;;0.00;99.90;;;;;;6110022;23;20562;-85
2022/03/02 07:00:18;;;;;;;21.50;12.20;;;0.00;99.90;;;;;;6131090;23;20404;-86
2022/03/02 07:03:11;;;;;;;22.20;12.00;;;0.10;99.90;;;;;;6129301;23;20415;-85
2022/03/02 07:05:39;;;;;;;19.63;12.90;;;0.10;99.90;;;;;;6133109;23;20890;-84
2022/03/02 07:08:05;;;;;;;15.93;10.70;;;0.10;99.90;;;;;;6104396;23;20780;-83
2022/03/02 07:10:33;;;;;;;18.70;12.20;;;0.00;99.90;;;;;;6132759;23;20400;-83
2022/03/02 07:13:01;;;;;;;16.17;12.50;;;-0.10;99.90;;;;;;6132903;23;20404;-83
2022/03/02 07:15:27;;;;;;;21.63;13.17;;;-0.10;99.90;;;;;;6128587;23;20438;-84
2022/03/02 07:17:53;;;;;;;19.00;12.60;;;0.00;99.90;;;;;;6127758;23;20870;-83
2022/03/02 07:20:19;;;;;;;20.23;13.10;;;0.20;99.90;;;;;;6128396;23;20398;-84
2022/03/02 07:22:53;;;;;;;16.93;12.37;;;0.30;99.90;;;;;;6128115;23;20250;-84
2022/03/02 07:25:29;;;;;;;17.43;11.83;;;0.40;99.90;;;;;;6126538;23;20171;-84
2022/03/02 07:27:56;;;;;;;17.00;10.93;;;0.50;99.90;;;;;;6127142;23;20446;-81
2022/03/02 07:30:23;;;;;;;16.80;11.83;;;0.70;99.90;;;;;;6128431;23;20402;-84
2022/03/02 07:32:56;;;;;;;15.10;11.40;;;0.90;99.70;;;;;;6131038;23;20380;-83
2022/03/02 07:35:23;;;;;;;16.03;11.97;;;1.00;99.30;;;;;;6127899;23;20458;-83
2022/03/02 07:37:49;;;;;;;20.03;13.33;;;1.00;98.70;;;;;;6126809;23;20403;-84
2022/03/02 07:40:16;;;;;;;18.20;12.50;;;1.00;98.70;;;;;;6129661;23;20387;-83
2022/03/02 07:42:42;;;;;;;21.77;14.90;;;1.10;99.00;;;;;;6126002;23;20399;-85
2022/03/02 07:45:09;;;;;;;19.10;13.03;;;1.20;98.70;;;;;;6125926;23;20388;-84
2022/03/02 07:47:34;;;;;;;16.30;10.40;;;1.30;98.30;;;;;;6126790;23;20926;-83
2022/03/02 07:50:00;;;;;;;17.60;10.70;;;1.40;97.80;;;;;;6127907;23;20414;-83
2022/03/02 07:52:29;;;;;;;18.10;11.33;;;1.50;97.50;;;;;;6130432;23;20172;-83
2022/03/02 07:54:59;;;;;;;17.57;12.27;;;1.50;97.50;;;;;;6126841;23;20168;-82
2022/03/02 07:57:28;;;;;;;16.80;11.80;;;1.50;97.50;;;;;;6125322;23;20435;-83
2022/03/02 07:59:56;;;;;;;16.00;11.03;;;1.50;97.50;;;;;;6130585;23;20474;-84
2022/03/02 08:02:24;;;;;;;19.43;12.43;;;1.50;97.50;;;;;;6128574;23;20400;-83
2022/03/02 08:04:54;;;;;;;18.67;13.00;;;1.50;97.60;;;;;;6127473;23;20475;-82
2022/03/02 08:07:23;;;;;;;19.93;12.97;;;1.50;97.50;;;;;;6127671;23;20908;-83
2022/03/02 08:09:52;;;;;;;22.33;14.07;;;1.30;97.90;;;;;;6129971;23;20834;-83
2022/03/02 08:12:22;;;;;;;18.87;13.17;;;1.30;98.10;;;;;;6128074;23;20167;-84
2022/03/02 08:15:11;;;;;;;18.37;12.77;;;1.40;98.30;;;;;;6130086;23;20407;-80
2022/03/02 08:17:37;;;;;;;17.00;12.43;;;1.40;98.10;;;;;;6131046;23;21044;-85
2022/03/02 08:20:05;;;;;;;18.90;14.00;;;1.30;98.40;;;;;;6125464;23;20396;-82
2022/03/02 08:22:34;;;;;;;20.03;12.23;;;1.40;99.10;;;;;;6126431;23;20957;-85
2022/03/02 08:25:10;;;;;;;17.73;12.50;;;1.70;98.90;;;;;;6135286;23;20750;-87
2022/03/02 08:27:39;;;;;;;19.57;13.17;;;2.00;98.50;;;;;;6128996;23;20499;-85
2022/03/02 08:30:06;;;;;;;20.40;11.57;;;2.30;97.50;;;;;;6131918;23;20384;-85
2022/03/02 08:32:39;;;;;;;16.70;12.47;;;2.20;96.50;;;;;;6133641;23;20764;-86
2022/03/02 08:35:06;;;;;;;15.00;11.50;;;2.10;96.60;;;;;;6128794;23;20415;-86
2022/03/02 08:37:32;;;;;;;17.77;12.80;;;2.20;96.90;;;;;;6129351;23;20467;-85
2022/03/02 08:39:59;;;;;;;17.07;12.60;;;2.30;97.10;;;;;;6132531;23;20388;-85
2022/03/02 08:42:25;;;;;;;15.33;11.40;;;2.40;96.30;;;;;;6144276;23;20431;-84
2022/03/02 08:44:54;;;;;;;15.70;11.47;;;2.50;96.50;;;;;;6132544;23;20415;-86
2022/03/02 08:47:22;;;;;;;17.77;12.50;;;2.40;96.40;;;;;;6132944;23;20164;-85
2022/03/02 08:49:49;;;;;;;18.73;13.30;;;2.90;96.70;;;;;;6132605;23;20400;-86
2022/03/02 08:52:16;;;;;;;16.47;12.30;;;3.40;95.30;;;;;;6132311;23;20424;-85
2022/03/02 08:54:47;;;;;;;18.80;12.00;;;3.50;94.60;;;;;;6130748;23;20912;-85
2022/03/02 08:57:14;;;;;;;17.13;12.13;;;3.50;94.80;;;;;;6128616;23;20440;-84
2022/03/02 08:59:43;;;;;;;15.00;10.97;;;3.70;95.00;;;;;;6130453;23;20531;-85
2022/03/02 09:02:27;;;;;;;16.63;12.63;;;3.60;94.70;;;;;;6133469;23;20397;-85
2022/03/02 09:04:53;;;;;;;17.17;12.50;;;3.70;94.30;;;;;;6131497;23;20624;-86
2022/03/02 09:07:21;;;;;;;16.67;12.50;;;3.90;94.10;;;;;;6133283;23;20889;-86
2022/03/02 09:09:47;;;;;;;17.40;12.10;;;3.90;94.40;;;;;;6131171;23;20401;-85
2022/03/02 09:12:15;;;;;;;15.30;11.57;;;4.10;94.40;;;;;;6127865;23;21018;-85
2022/03/02 09:14:41;;;;;;;17.93;12.77;;;4.00;94.40;;;;;;6129332;23;20426;-86
2022/03/02 09:17:08;;;;;;;16.63;12.60;;;4.20;94.80;;;;;;6132224;23;20447;-86
2022/03/02 09:19:35;;;;;;;18.57;13.03;;;4.00;94.00;;;;;;6129655;23;20386;-85
2022/03/02 09:22:01;;;;;;;19.70;12.37;;;3.90;95.40;;;;;;6134296;23;20749;-84
2022/03/02 09:24:29;;;;;;;15.30;12.13;;;4.50;94.60;;;;;;6128882;23;20384;-86
2022/03/02 09:26:59;;;;;;;16.13;11.90;;;4.90;94.40;;;;;;6127018;23;20531;-85
2022/03/02 09:29:30;;;;;;;15.20;11.73;;;5.10;92.50;;;;;;6130672;23;20391;-85
2022/03/02 09:31:58;;;;;;;14.87;12.27;;;5.10;91.60;;;;;;6132258;23;20394;-86
2022/03/02 09:34:29;;;;;;;23.40;16.33;;;5.30;91.30;;;;;;6131873;23;20390;-87
2022/03/02 09:36:56;;;;;;;17.27;12.80;;;5.70;93.90;;;;;;6129535;23;20510;-92
2022/03/02 09:39:28;;;;;;;20.43;12.83;;;6.30;92.10;;;;;;6127830;23;20618;-91
2022/03/02 09:42:10;;;;;;;17.97;12.50;;;6.80;90.30;;;;;;6128646;23;20404;-91
2022/03/02 09:44:45;;;;;;;18.00;12.50;;;7.20;84.80;;;;;;6128183;23;20761;-90
2022/03/02 09:48:04;;;;;;;13.70;11.17;;;7.30;85.90;;;;;;6132274;23;21021;-91
2022/03/02 09:50:34;;;;;;;17.67;12.23;;;7.70;83.60;;;;;;6131398;23;20396;-90
2022/03/02 09:53:48;;;;;;;14.73;12.37;;;8.00;82.50;;;;;;6129415;23;20727;-90
2022/03/02 09:56:37;;;;;;;13.43;11.27;;;8.10;78.20;;;;;;6143726;23;20447;-91
2022/03/02 09:59:08;;;;;;;15.03;11.63;;;8.20;80.80;;;;;;6129355;23;21032;-88
2022/03/02 10:01:39;;;;;;;12.63;10.90;;;7.70;75.40;;;;;;6127147;23;20442;-89
2022/03/02 10:04:17;;;;;;;15.37;10.80;;;7.00;77.50;;;;;;6126701;23;20704;-87
2022/03/02 10:06:44;;;;;;;13.70;10.43;;;6.70;77.00;;;;;;6123858;23;20801;-87
2022/03/02 10:09:11;;;;;;;13.23;11.10;;;6.60;77.20;;;;;;6123865;23;20390;-88
2022/03/02 10:11:41;;;;;;;17.53;15.73;;;6.80;77.50;;;;;;6123648;23;20407;-88
2022/03/02 10:14:06;;;;;;;13.83;10.40;;;7.10;76.20;;;;;;6124671;23;20431;-86
2022/03/02 10:16:40;;;;;;;19.97;17.50;;;7.20;75.20;;;;;;6123739;23;20441;-87
2022/03/02 10:19:22;;;;;;;23.67;20.13;;;7.40;74.80;;;;;;6122824;23;20492;-87
2022/03/02 10:21:59;;;;;;;16.90;13.57;;;7.40;74.40;;;;;;6123602;23;20402;-88
2022/03/02 10:24:31;;;;;;;16.93;12.93;;;7.90;76.00;;;;;;6125124;23;20738;-88
2022/03/02 10:27:06;;;;;;;16.50;12.43;;;8.20;74.10;;;;;;6127231;23;20388;-87
2022/03/02 10:30:09;;;;;;;17.57;12.17;;;8.40;73.40;;;;;;6131607;23;20394;-86
2022/03/02 10:32:39;;;;;;;15.33;12.57;;;7.80;75.20;;;;;;6116229;23;20403;-87
2022/03/02 10:35:09;;;;;;;13.63;12.20;;;7.60;75.50;;;;;;6134313;23;20395;-87
2022/03/02 10:37:41;;;;;;;21.23;15.60;;;7.90;77.80;;;;;;6134099;23;20943;-87
2022/03/02 10:40:16;;;;;;;20.50;12.03;;;8.80;74.70;;;;;;6136830;23;20480;-86
2022/03/02 10:42:46;;;;;;;15.80;12.40;;;9.50;74.50;;;;;;6135385;23;20743;-89
2022/03/02 10:45:13;;;;;;;15.47;12.13;;;9.10;70.50;;;;;;6135894;23;20491;-89
2022/03/02 10:48:12;;;;;;;16.63;13.33;;;8.40;72.10;;;;;;6136357;23;20455;-87
2022/03/02 10:50:41;;;;;;;15.57;12.30;;;8.70;71.10;;;;;;6137204;23;20393;-88
2022/03/02 10:53:15;;;;;;;17.50;14.27;;;9.20;68.80;;;;;;6135997;23;20396;-89
2022/03/02 10:55:43;;;;;;;19.97;13.37;;;9.60;68.60;;;;;;6137491;23;20425;-90
2022/03/02 10:58:13;;;;;;;16.67;12.10;;;9.30;68.90;;;;;;6135168;23;20403;-89
2022/03/02 11:00:39;;;;;;;14.30;12.20;;;8.30;71.60;;;;;;6137049;23;20938;-90
2022/03/02 11:03:07;;;;;;;13.97;11.27;;;8.70;70.50;;;;;;6141699;23;20500;-90
2022/03/02 11:05:34;;;;;;;16.67;11.90;;;9.10;69.20;;;;;;6136645;23;20912;-89
2022/03/02 11:08:01;;;;;;;15.30;12.17;;;9.10;69.40;;;;;;6134344;23;20420;-88
2022/03/02 11:10:37;;;;;;;14.33;11.50;;;8.10;70.10;;;;;;6133689;23;20424;-88
2022/03/02 11:13:13;;;;;;;14.70;11.53;;;8.10;71.70;;;;;;6139122;23;20612;-89
2022/03/02 11:15:50;;;;;;;14.70;12.27;;;8.40;74.60;;;;;;6136135;23;20515;-86
2022/03/02 11:18:19;;;;;;;15.90;11.73;;;8.50;71.00;;;;;;6131948;23;20393;-85
2022/03/02 11:21:03;;;;;;;16.03;12.70;;;8.50;70.80;;;;;;6133321;23;20605;-86
2022/03/02 11:23:33;;;;;;;15.63;12.63;;;8.40;71.40;;;;;;6137019;23;20440;-87
2022/03/02 11:26:11;;;;;;;32.97;26.20;;;8.60;71.40;;;;;;6135221;23;20399;-86
2022/03/02 11:28:37;;;;;;;16.53;12.90;;;9.00;71.90;;;;;;6135453;23;20994;-86
2022/03/02 11:31:08;;;;;;;15.93;12.53;;;8.80;72.80;;;;;;6129892;23;20910;-87
2022/03/02 11:33:35;;;;;;;14.73;12.40;;;8.80;73.80;;;;;;6131078;23;20390;-86
2022/03/02 11:36:17;;;;;;;16.53;13.47;;;9.20;74.40;;;;;;6130440;23;20444;-86
2022/03/02 11:38:44;;;;;;;14.30;11.93;;;9.30;74.80;;;;;;6132068;23;20401;-86
2022/03/02 11:41:11;;;;;;;15.70;13.27;;;9.60;72.00;;;;;;6133903;23;20466;-86
2022/03/02 11:43:37;;;;;;;15.63;12.63;;;9.80;70.10;;;;;;6129215;23;20401;-85
2022/03/02 11:46:05;;;;;;;15.87;13.40;;;10.10;71.10;;;;;;6132012;23;20614;-85
2022/03/02 11:48:40;;;;;;;16.73;13.90;;;10.20;71.50;;;;;;6130923;23;20166;-85
2022/03/02 11:51:13;;;;;;;14.37;12.70;;;10.30;70.90;;;;;;6131091;23;20383;-85
2022/03/02 11:53:59;;;;;;;15.10;13.50;;;10.20;69.50;;;;;;6131554;23;20985;-85
2022/03/02 11:56:27;;;;;;;15.93;13.60;;;10.30;71.90;;;;;;6129361;23;21019;-86
2022/03/02 11:58:58;;;;;;;16.17;13.40;;;10.10;72.00;;;;;;6126725;23;20478;-85
2022/03/02 12:01:26;;;;;;;15.10;12.57;;;10.00;70.40;;;;;;6127337;23;20384;-85
2022/03/02 12:04:00;;;;;;;15.57;13.40;;;10.00;73.70;;;;;;6128934;23;20404;-86
2022/03/02 12:06:28;;;;;;;16.93;13.03;;;9.90;75.00;;;;;;6128090;23;20395;-85
2022/03/02 12:08:56;;;;;;;13.63;12.33;;;9.70;71.40;;;;;;6134769;23;20602;-86
2022/03/02 12:11:38;;;;;;;16.13;12.67;;;9.70;73.30;;;;;;6129698;23;20982;-86
2022/03/02 12:14:09;;;;;;;14.20;12.63;;;9.90;72.80;;;;;;6131457;23;20725;-86
2022/03/02 12:16:39;;;;;;;15.40;11.90;;;10.10;72.40;;;;;;6146750;23;20454;-86
2022/03/02 12:19:09;;;;;;;15.30;13.20;;;10.40;71.10;;;;;;6135550;23;20387;-85
2022/03/02 12:21:35;;;;;;;13.70;12.20;;;10.70;69.00;;;;;;6128456;23;20384;-85
2022/03/02 12:24:01;;;;;;;15.20;13.10;;;10.50;70.20;;;;;;6129507;23;21072;-85
2022/03/02 12:26:27;;;;;;;15.13;11.87;;;10.70;67.20;;;;;;6133414;23;20542;-85
2022/03/02 12:28:56;;;;;;;15.10;12.23;;;10.30;63.10;;;;;;6135443;23;20926;-85
2022/03/02 12:31:32;;;;;;;14.60;12.27;;;10.40;62.50;;;;;;6129277;23;20164;-86
2022/03/02 12:34:12;;;;;;;15.43;12.70;;;10.60;64.20;;;;;;6130762;23;20441;-86
2022/03/02 12:36:37;;;;;;;14.63;12.17;;;10.70;62.50;;;;;;6128547;23;20977;-85
2022/03/02 12:39:06;;;;;;;15.70;12.17;;;10.80;62.60;;;;;;6131227;23;20441;-85
2022/03/02 12:41:38;;;;;;;14.10;12.33;;;11.00;61.30;;;;;;6127734;23;20164;-85
2022/03/02 12:44:13;;;;;;;13.13;11.60;;;10.90;60.40;;;;;;6152062;23;20383;-86